Hauptseite
METAR-TAF:

METAR-TAF

Flughäfen :

Flughafen Augsburg

Augsburg, Deutschland

Breite: 48-26N, Länge: 010-56E, Höhe: 461 m

Beobachtung

Neuester Wetterbericht von vor 28 Minuten, um 09:50 UTC
Wind 8 kt aus Südwest, variierte zwischen Süd/Südwest und West
Temperatur 16°C
Luftfeuchtigkeit 82%
Luftdruck 1009 hPa
Sichtweite 10 km oder mehr
Leicht bewölkt in der Höhe von 4000 ft

METAR: EDMA 240950Z 23008KT 200V260 9999 FEW040 16/13 Q1009

Zeit: 12:18 (10:18 UTC)

Prognose

Neuester Wetterbericht von vor 2 Stunden und 18 Minuten, um 08:00 UTC
Gültige Prognose vom 24 um 09 UTC bis 24 um 18 UTC
Wind 10 kt aus West
Sichtweite 10 km oder mehr
Aufgelockert bewölkt in der Höhe von 1200 ft
Durchbrochene Bewölkung in der Höhe von 4000 ft
Zeitweise
vom 24 um 09 UTC bis 24 um 11 UTC
Durchbrochene Bewölkung in der Höhe von 1200 ft

TAF: EDMA 240800Z 2409/2418 27010KT 9999 SCT012 BKN040 TEMPO 2409/2411 BKN012

Wetterbeobachtungen und Prognosen von mehr als 4000 Flughäfen (METAR und TAF Bericht).

Die verfügbaren Stationen werden durch gelbe und rote Markierungen auf der Karte dargestellt.

Führen Sie die Maus auf sie, um den Namen der Station zu sehen.

Darauf klicken, um die Beobachtung von Wetterbeobachtungen und Prognosen zu sehen.

Um die Karte zu ändern : klicken Sie auf den grünen Tasten mit einem schwarzen Kreuz Zum Vergrößern, auf den grünen Button mit einem Gedankenstrich zu verkleinern, oder auf die grünen Pfeile für benachbarte Karten.


METAR-TAF: